Time;durP1;ratioP1;P1;durP2;ratioP2;P2;SDS_P1;SDS_P2;PMS_P1;PMS_P2;Temp;Humidity;BMP_temperature;BMP_pressure;BME280_temperature;BME280_humidity;BME280_pressure;Samples;Min_cycle;Max_cycle;Signal;HPM_P1;HPM_P2
2022/01/26 14:25:23;;;;;;;61.42;32.17;;;3.80;99.90;;;;;;6211917;23;20382;-51
2022/01/26 14:27:50;;;;;;;60.83;32.08;;;3.80;99.90;;;;;;6199651;23;20344;-52
2022/01/26 14:33:14;;;;;;;57.97;31.77;;;3.80;99.90;;;;;;6211011;23;20367;-56
2022/01/26 15:34:41;;;;;;;62.73;33.23;;;4.00;99.90;;;;;;6218171;23;20561;-49
2022/01/26 15:40:21;;;;;;;63.97;32.20;;;4.00;99.90;;;;;;6211644;23;20409;-53
2022/01/26 15:51:18;;;;;;;57.58;31.52;;;4.10;99.90;;;;;;6212918;23;20362;-51
2022/01/26 16:04:18;;;;;;;58.60;32.25;;;4.10;99.90;;;;;;6210065;23;20355;-49
2022/01/26 16:16:29;;;;;;;59.58;32.83;;;4.20;99.90;;;;;;6210141;23;20807;-51
2022/01/26 17:24:19;;;;;;;70.68;36.85;;;4.40;99.90;;;;;;6210868;23;20630;-50
2022/01/26 17:43:27;;;;;;;76.20;38.90;;;4.40;99.90;;;;;;6214612;23;20776;-51
2022/01/26 18:15:36;;;;;;;80.45;40.05;;;4.50;99.90;;;;;;6220786;23;20829;-52
2022/01/26 18:25:49;;;;;;;82.43;40.35;;;4.50;99.90;;;;;;6208927;23;20928;-52
2022/01/26 18:26:34;;;;;;;75.32;39.22;;;4.60;99.90;;;;;;6209904;23;20359;-50
2022/01/26 18:32:05;;;;;;;78.57;39.75;;;4.60;99.90;;;;;;6211014;23;20351;-48
2022/01/26 18:40:32;;;;;;;76.95;38.70;;;4.60;99.90;;;;;;6211794;23;20428;-49
2022/01/26 18:51:10;;;;;;;70.03;38.00;;;5.00;99.90;;;;;;6210305;23;20433;-48
2022/01/26 18:53:35;;;;;;;73.78;38.63;;;5.00;99.90;;;;;;6210335;23;20344;-50
2022/01/26 18:56:01;;;;;;;68.88;36.38;;;5.10;99.90;;;;;;6208942;23;20359;-53
2022/01/26 18:58:26;;;;;;;69.23;37.13;;;5.10;99.90;;;;;;6209657;23;20344;-48
2022/01/26 19:00:52;;;;;;;71.03;37.08;;;4.90;99.90;;;;;;6207185;23;20355;-49
2022/01/26 19:03:18;;;;;;;71.43;37.50;;;4.90;99.90;;;;;;6207210;23;20646;-53
2022/01/26 19:05:44;;;;;;;70.43;38.05;;;4.80;99.90;;;;;;6208781;23;20387;-52
2022/01/26 19:08:10;;;;;;;74.30;38.50;;;4.80;99.90;;;;;;6205685;23;20769;-56
2022/01/26 19:10:36;;;;;;;71.22;37.45;;;4.80;99.90;;;;;;6207706;23;20393;-52
2022/01/26 19:13:01;;;;;;;76.43;38.20;;;4.80;99.90;;;;;;6207841;23;20596;-53
2022/01/26 19:15:30;;;;;;;72.90;38.30;;;4.80;99.90;;;;;;6207667;23;20363;-55
2022/01/26 19:18:08;;;;;;;76.20;38.87;;;4.80;99.90;;;;;;6209108;23;20409;-56
2022/01/26 19:20:50;;;;;;;70.40;36.53;;;4.80;99.90;;;;;;6210803;23;20375;-52
2022/01/26 19:23:31;;;;;;;69.47;35.70;;;4.80;99.90;;;;;;6211320;23;20359;-53
2022/01/26 19:26:12;;;;;;;73.65;37.88;;;4.80;99.90;;;;;;6210160;23;20358;-53
2022/01/26 19:28:43;;;;;;;71.53;36.92;;;4.80;99.90;;;;;;6210412;23;20363;-53
2022/01/26 19:44:46;;;;;;;64.93;36.38;;;4.80;99.90;;;;;;6210913;23;20406;-54
2022/01/26 19:47:28;;;;;;;70.75;35.85;;;4.80;99.90;;;;;;6209492;23;20351;-49
2022/01/26 19:52:38;;;;;;;65.68;36.22;;;4.80;99.90;;;;;;6213313;23;20354;-53
2022/01/26 19:55:04;;;;;;;65.18;34.47;;;4.80;99.90;;;;;;6212652;23;20486;-51
2022/01/26 19:57:30;;;;;;;61.50;34.45;;;4.80;99.90;;;;;;6211026;23;20352;-53
2022/01/26 19:59:55;;;;;;;66.57;34.35;;;4.80;99.90;;;;;;6209893;23;20356;-51
2022/01/26 20:02:21;;;;;;;67.65;34.60;;;4.80;99.90;;;;;;6209638;23;20421;-61
2022/01/26 20:04:47;;;;;;;62.00;33.75;;;5.20;99.90;;;;;;6208177;23;20367;-60
2022/01/26 20:07:18;;;;;;;57.63;32.58;;;5.20;99.90;;;;;;6208831;23;20359;-53
2022/01/26 20:09:49;;;;;;;65.13;33.03;;;5.30;99.90;;;;;;6209706;23;20411;-56
2022/01/26 20:12:25;;;;;;;57.88;32.75;;;5.10;99.90;;;;;;6207571;23;20359;-53
2022/01/26 20:14:55;;;;;;;62.85;32.40;;;5.00;99.90;;;;;;6211181;23;20368;-53
2022/01/26 20:17:20;;;;;;;57.05;32.55;;;5.00;99.90;;;;;;6213540;23;20880;-53
2022/01/26 20:19:46;;;;;;;59.83;31.63;;;4.90;99.90;;;;;;6215052;23;20370;-51
2022/01/26 20:22:11;;;;;;;60.88;32.30;;;4.90;99.90;;;;;;6213818;23;20368;-53
2022/01/26 20:24:37;;;;;;;59.90;31.83;;;4.90;99.90;;;;;;6214330;23;20347;-53
2022/01/26 20:27:06;;;;;;;54.20;28.97;;;4.90;99.90;;;;;;6214176;23;20417;-51
2022/01/26 20:29:38;;;;;;;52.55;29.90;;;5.00;99.90;;;;;;6212857;23;20361;-55
2022/01/26 20:32:04;;;;;;;53.53;30.40;;;5.00;99.90;;;;;;6212722;23;20358;-55
2022/01/26 20:34:30;;;;;;;52.42;28.52;;;5.00;99.90;;;;;;6214413;23;20390;-50
2022/01/26 20:36:55;;;;;;;49.88;28.05;;;5.00;99.90;;;;;;6213175;23;20447;-53
2022/01/26 20:39:21;;;;;;;48.28;27.38;;;5.00;99.90;;;;;;6212322;23;20750;-52
2022/01/26 20:41:47;;;;;;;44.60;25.95;;;5.00;99.90;;;;;;6211922;23;20394;-51
2022/01/26 20:44:12;;;;;;;42.23;25.97;;;5.00;99.90;;;;;;6211821;23;20409;-54
2022/01/26 20:46:38;;;;;;;47.80;26.77;;;5.00;99.90;;;;;;6212469;23;20414;-54
2022/01/26 20:49:04;;;;;;;45.60;26.92;;;4.90;99.90;;;;;;6215579;23;20797;-48
2022/01/26 20:51:30;;;;;;;43.38;25.00;;;4.90;99.90;;;;;;6214728;23;20355;-53
2022/01/26 20:53:57;;;;;;;42.55;24.42;;;4.90;99.90;;;;;;6215293;23;20359;-51
2022/01/26 20:56:23;;;;;;;45.17;25.75;;;4.90;99.90;;;;;;6214671;23;20375;-56
2022/01/26 20:58:49;;;;;;;43.17;24.03;;;4.90;99.90;;;;;;6214254;23;20351;-51
2022/01/26 21:01:15;;;;;;;42.08;23.95;;;4.80;99.90;;;;;;6213478;23;20406;-51
2022/01/26 21:03:41;;;;;;;43.58;24.08;;;4.80;99.90;;;;;;6213513;23;20359;-50
2022/01/26 21:06:07;;;;;;;41.03;24.42;;;4.80;99.90;;;;;;6212814;23;20812;-50
2022/01/26 21:08:34;;;;;;;41.97;24.00;;;4.80;99.90;;;;;;6213333;23;20952;-51
2022/01/26 21:11:04;;;;;;;39.30;23.98;;;4.80;99.90;;;;;;6212944;23;20351;-55
2022/01/26 21:13:32;;;;;;;39.50;24.23;;;4.80;99.90;;;;;;6213256;23;20362;-53
2022/01/26 21:15:58;;;;;;;40.97;24.15;;;4.80;99.90;;;;;;6212066;23;20375;-50
2022/01/26 21:18:23;;;;;;;41.65;23.70;;;4.80;99.90;;;;;;6212985;23;20383;-52
2022/01/26 21:20:49;;;;;;;39.70;23.40;;;4.80;99.90;;;;;;6214952;23;20382;-52
2022/01/26 21:23:14;;;;;;;43.47;24.53;;;4.80;99.90;;;;;;6213947;23;20352;-52
2022/01/26 21:25:40;;;;;;;40.40;24.53;;;4.80;99.90;;;;;;6214367;23;20383;-53
2022/01/26 21:28:06;;;;;;;46.15;26.77;;;4.80;99.90;;;;;;6210549;23;20379;-54
2022/01/26 21:30:32;;;;;;;46.30;26.52;;;4.80;99.90;;;;;;6207984;23;20366;-49
2022/01/26 21:32:58;;;;;;;41.70;25.25;;;4.80;99.90;;;;;;6209487;23;20344;-54
2022/01/26 21:35:25;;;;;;;41.92;25.92;;;4.80;99.90;;;;;;6209234;23;20794;-52
2022/01/26 21:37:53;;;;;;;42.78;25.98;;;4.80;99.90;;;;;;6212339;23;20490;-49
2022/01/26 21:40:19;;;;;;;46.57;26.50;;;4.80;99.90;;;;;;6210489;23;20356;-53
2022/01/26 21:42:44;;;;;;;48.15;26.88;;;4.80;99.90;;;;;;6208320;23;20405;-51
2022/01/26 21:45:11;;;;;;;41.27;25.50;;;4.80;99.90;;;;;;6205914;23;20352;-56
2022/01/26 21:47:36;;;;;;;45.55;26.48;;;4.80;99.90;;;;;;6203017;23;20351;-52
2022/01/26 21:50:03;;;;;;;45.60;25.98;;;4.80;99.90;;;;;;6209736;23;20442;-54
2022/01/26 21:52:30;;;;;;;47.17;26.67;;;4.70;99.90;;;;;;6211285;23;20458;-55
2022/01/26 21:54:56;;;;;;;45.38;25.38;;;4.70;99.90;;;;;;6213907;23;20359;-52
2022/01/26 21:57:22;;;;;;;43.38;25.83;;;4.80;99.90;;;;;;6212779;23;20370;-51
2022/01/26 21:59:47;;;;;;;40.83;24.42;;;4.80;99.90;;;;;;6212758;23;20806;-50
2022/01/26 22:02:13;;;;;;;39.30;24.80;;;4.80;99.90;;;;;;6210967;23;20414;-54
2022/01/26 22:04:39;;;;;;;38.57;23.30;;;4.80;99.90;;;;;;6212061;23;20386;-55
2022/01/26 22:07:05;;;;;;;43.10;25.58;;;4.80;99.90;;;;;;6213794;23;20386;-54
2022/01/26 22:09:30;;;;;;;38.43;23.60;;;4.80;99.90;;;;;;6213021;23;20355;-54
2022/01/26 22:11:56;;;;;;;42.93;24.60;;;4.70;99.90;;;;;;6214048;23;20845;-54
2022/01/26 22:14:24;;;;;;;41.57;24.77;;;4.70;99.90;;;;;;6214774;23;20435;-55
2022/01/26 22:16:49;;;;;;;41.47;24.77;;;4.70;99.90;;;;;;6213215;23;20348;-55
2022/01/26 22:19:15;;;;;;;41.28;24.00;;;4.70;99.90;;;;;;6213061;23;20809;-54
2022/01/26 22:21:40;;;;;;;41.40;24.43;;;4.70;99.90;;;;;;6210285;23;20375;-54
2022/01/26 22:24:08;;;;;;;38.70;24.37;;;4.70;99.90;;;;;;6212042;23;20360;-54
2022/01/26 22:26:35;;;;;;;41.88;24.30;;;4.70;99.90;;;;;;6211436;23;20765;-52
2022/01/26 22:29:04;;;;;;;44.58;25.95;;;4.70;99.90;;;;;;6209540;23;20355;-54
2022/01/26 22:31:30;;;;;;;43.40;25.58;;;4.60;99.90;;;;;;6209879;23;20454;-55
2022/01/26 22:33:56;;;;;;;43.88;25.23;;;4.60;99.90;;;;;;6208928;23;20351;-50
2022/01/26 22:36:23;;;;;;;43.80;25.83;;;4.60;99.90;;;;;;6208620;23;20389;-57
2022/01/26 22:38:49;;;;;;;48.80;27.38;;;4.60;99.90;;;;;;6211103;23;20792;-54
2022/01/26 22:41:15;;;;;;;47.33;27.40;;;4.60;99.90;;;;;;6209965;23;20344;-51
2022/01/26 22:43:40;;;;;;;45.47;27.67;;;4.60;99.90;;;;;;6209560;23;20706;-53
2022/01/26 22:46:06;;;;;;;52.80;30.25;;;4.60;99.90;;;;;;6209782;23;20356;-53
2022/01/26 22:48:32;;;;;;;56.97;30.80;;;4.60;99.90;;;;;;6208344;23;20355;-53
2022/01/26 22:51:01;;;;;;;50.85;30.02;;;4.60;99.90;;;;;;6209638;23;20583;-52
2022/01/26 22:53:27;;;;;;;53.15;30.85;;;4.60;99.90;;;;;;6210119;23;20387;-50
2022/01/26 22:55:53;;;;;;;54.63;31.05;;;4.60;99.90;;;;;;6210247;23;20368;-54
2022/01/26 22:58:20;;;;;;;56.00;32.40;;;4.60;99.90;;;;;;6211343;23;20439;-52
2022/01/26 23:01:04;;;;;;;56.90;32.95;;;4.60;99.90;;;;;;6209824;23;20389;-54
2022/01/26 23:03:32;;;;;;;63.97;34.63;;;4.60;99.90;;;;;;6208472;23;20359;-54
2022/01/26 23:08:23;;;;;;;64.35;34.78;;;4.70;99.90;;;;;;6220671;23;20446;-51
2022/01/26 23:10:49;;;;;;;61.05;34.15;;;4.70;99.90;;;;;;6208388;23;20356;-56
2022/01/26 23:13:15;;;;;;;67.68;36.65;;;4.80;99.90;;;;;;6209062;23;20351;-54
2022/01/26 23:15:40;;;;;;;66.13;36.47;;;4.70;99.90;;;;;;6208955;23;20466;-53
2022/01/26 23:18:06;;;;;;;68.90;37.67;;;4.70;99.90;;;;;;6207498;23;20355;-55
2022/01/26 23:20:31;;;;;;;65.80;36.90;;;4.80;99.90;;;;;;6204426;23;20382;-55
2022/01/26 23:23:02;;;;;;;67.07;36.83;;;4.80;99.90;;;;;;6206061;23;20425;-52
2022/01/26 23:33:37;;;;;;;77.87;41.33;;;4.80;99.90;;;;;;6221164;23;20417;-55
2022/01/26 23:39:24;;;;;;;75.32;42.22;;;4.80;99.90;;;;;;6213805;23;20802;-58
2022/01/26 23:42:10;;;;;;;73.97;40.55;;;4.90;99.90;;;;;;6206602;23;20775;-51
